UKBB/KBP METAR and TAF weather

Enter ICAO airport designator
Station Type Date Time Source
UKBB METAR 2020/01/27 14:00 UTC NOAA

UKBB 271400Z 21004MPS 4600 BR BKN006 M00/M01 Q1015 R18L/290050 R18R/CLRD// NOSIG


Station Type Date Time Source
UKBB Decoded METAR 2020/01/27 14:00 UTC NOAA

Boryspil, Ukraine (UKBB) 50-20N 030-58E 122M
Jan 27, 2020 - 09:00 AM EST / 2020.01.27 1400 UTC
Wind: from the SSW (210 degrees) at 9 MPH (8 KT):0
Visibility: 2 mile(s):0
Sky conditions: mostly cloudy
Weather: mist
Temperature: 32 F (0 C)
Windchill: 24 F (-4 C):1
Dew Point: 30 F (-1 C)
Relative Humidity: 92%
Pressure (altimeter): 29.97 in. Hg (1015 hPa)
ob: UKBB 271400Z 21004MPS 4600 BR BKN006 M00/M01 Q1015 R18L/290050 R18R/CLRD// NOSIG
cycle: 14

Station Type Date Time Source
UKBB TAF 2020/01/27 12:12 UTC NOAA

TAF TAF UKBB 271100Z 2712/2812 20004G09MPS 3000 BR BKN004 OVC007 TX03/2812Z TNM03/2804Z
TEMPO 2712/2715 1000 BR OVC002
TEMPO 2715/2807 0400 FZFG VV001

Example: see airport list